createdAt,value
2023-01-07T00:03:31.443Z,100559.91
2023-01-07T00:08:32.280Z,100564.50
2023-01-07T00:13:28.991Z,100562.78
2023-01-07T00:18:25.875Z,100566.63
2023-01-07T00:23:24.376Z,100571.28
2023-01-07T00:28:20.983Z,100570.13
2023-01-07T00:33:18.117Z,100559.28
2023-01-07T00:38:14.405Z,100554.28
2023-01-07T00:43:11.857Z,100538.69
2023-01-07T00:48:09.093Z,100545.59
2023-01-07T00:53:05.667Z,100541.34
2023-01-07T00:58:02.084Z,100545.59
2023-01-07T01:02:59.403Z,100543.88
2023-01-07T01:07:55.715Z,100544.28
2023-01-07T01:12:51.998Z,100536.31
2023-01-07T01:17:50.841Z,100527.97
2023-01-07T01:22:47.205Z,100531.34
2023-01-07T01:27:43.969Z,100539.53
2023-01-07T01:32:40.268Z,100543.03
2023-01-07T01:37:36.687Z,100550.25
2023-01-07T01:42:33.191Z,100556.94
2023-01-07T01:47:54.505Z,100562.03
2023-01-07T01:53:15.877Z,100557.47
2023-01-07T01:58:21.643Z,100553.97
2023-01-07T02:03:21.334Z,100553.94
2023-01-07T02:08:22.111Z,100555.44
2023-01-07T02:13:31.090Z,100542.16
2023-01-07T02:18:42.359Z,100547.47
2023-01-07T02:23:38.778Z,100539.38
2023-01-07T02:29:09.239Z,100531.72
2023-01-07T02:34:24.402Z,100517.91
2023-01-07T02:39:27.089Z,100507.94
2023-01-07T02:44:45.455Z,100492.25
2023-01-07T02:49:41.777Z,100489.06
2023-01-07T02:54:38.250Z,100478.56
2023-01-07T03:00:13.998Z,100465.94
2023-01-07T03:05:22.431Z,100466.75
2023-01-07T03:10:35.888Z,100457.41
2023-01-07T03:15:58.822Z,100454.88
2023-01-07T03:20:59.936Z,100454.34
2023-01-07T03:26:02.510Z,100439.81
2023-01-07T03:31:00.833Z,100437.94
2023-01-07T03:36:00.297Z,100409.13
2023-01-07T03:40:57.237Z,100411.03
2023-01-07T03:45:55.271Z,100401.06
2023-01-07T03:50:51.796Z,100393.81
2023-01-07T03:55:48.227Z,100390.66
2023-01-07T04:00:44.675Z,100388.63
2023-01-07T04:05:41.139Z,100387.50
2023-01-07T04:10:37.531Z,100377.63
2023-01-07T04:15:33.978Z,100365.44
2023-01-07T04:20:30.326Z,100359.50
2023-01-07T04:25:26.872Z,100353.44
2023-01-07T04:30:23.231Z,100349.75
2023-01-07T04:35:19.652Z,100344.00
2023-01-07T04:40:16.427Z,100333.63
2023-01-07T04:45:12.766Z,100337.03
2023-01-07T04:50:09.559Z,100327.28
2023-01-07T04:55:06.754Z,100320.50
2023-01-07T05:00:04.266Z,100320.91
2023-01-07T05:05:00.756Z,100317.06
2023-01-07T05:09:57.152Z,100311.91
2023-01-07T05:14:53.605Z,100312.22
2023-01-07T05:19:50.022Z,100314.34
2023-01-07T05:24:46.384Z,100302.47
2023-01-07T05:29:42.729Z,100297.91
2023-01-07T05:34:39.169Z,100292.72
2023-01-07T05:39:35.513Z,100294.84
2023-01-07T05:44:31.890Z,100297.59
2023-01-07T05:49:28.266Z,100286.66
2023-01-07T05:54:24.629Z,100290.59
2023-01-07T05:59:20.974Z,100299.50
2023-01-07T06:04:17.724Z,100297.59
2023-01-07T06:09:14.192Z,100299.06
2023-01-07T06:14:10.808Z,100291.66
2023-01-07T06:19:07.147Z,100282.63
2023-01-07T06:24:03.676Z,100286.13
2023-01-07T06:29:00.007Z,100276.81
2023-01-07T06:33:56.994Z,100279.16
2023-01-07T06:38:53.387Z,100275.97
2023-01-07T06:43:49.762Z,100273.84
2023-01-07T06:48:46.335Z,100273.31
2023-01-07T06:53:42.709Z,100271.75
2023-01-07T06:58:39.233Z,100268.16
2023-01-07T07:03:35.705Z,100266.44
2023-01-07T07:08:32.117Z,100268.88
2023-01-07T07:13:28.483Z,100273.75
2023-01-07T07:18:24.961Z,100265.28
2023-01-07T07:23:21.322Z,100271.41
2023-01-07T07:28:17.921Z,100267.69
2023-01-07T07:33:15.067Z,100261.47
2023-01-07T07:38:11.571Z,100257.13
2023-01-07T07:43:11.425Z,100260.72
2023-01-07T07:48:10.584Z,100243.00
2023-01-07T07:53:10.033Z,100243.81
2023-01-07T07:58:06.995Z,100238.25
2023-01-07T08:03:03.730Z,100228.03
2023-01-07T08:08:00.110Z,100219.88
2023-01-07T08:12:56.492Z,100218.13
2023-01-07T08:18:04.656Z,100214.72
2023-01-07T08:23:02.293Z,100213.84
2023-01-07T08:27:59.852Z,100194.34
2023-01-07T08:32:57.166Z,100192.91
2023-01-07T08:38:01.392Z,100184.03
2023-01-07T08:43:02.039Z,100169.09
2023-01-07T08:47:58.709Z,100157.16
2023-01-07T08:52:55.617Z,100153.31
2023-01-07T08:57:52.445Z,100146.47
2023-01-07T09:02:48.907Z,100143.81
2023-01-07T09:07:45.304Z,100140.72
2023-01-07T09:12:41.704Z,100138.75
2023-01-07T09:17:38.256Z,100137.31
2023-01-07T09:22:36.323Z,100136.34
2023-01-07T09:27:32.967Z,100132.97
2023-01-07T09:32:29.744Z,100141.66
2023-01-07T09:37:26.614Z,100141.78
2023-01-07T09:42:58.676Z,100136.72
2023-01-07T09:47:58.577Z,100141.56
2023-01-07T09:53:00.357Z,100140.56
2023-01-07T09:57:56.860Z,100139.25
2023-01-07T10:03:29.871Z,100138.53
2023-01-07T10:08:33.218Z,100127.41
2023-01-07T10:13:41.288Z,100128.25
2023-01-07T10:19:18.736Z,100125.44
2023-01-07T10:24:21.938Z,100117.72
2023-01-07T10:29:44.932Z,100109.50
2023-01-07T10:34:45.461Z,100096.66
2023-01-07T10:40:12.750Z,100089.41
2023-01-07T10:45:31.204Z,100086.47
2023-01-07T10:50:30.310Z,100071.00
2023-01-07T10:55:37.245Z,100063.41
2023-01-07T11:00:33.813Z,100055.03
2023-01-07T11:05:37.919Z,100049.19
2023-01-07T11:10:37.551Z,100031.13
2023-01-07T11:15:43.205Z,100028.94
2023-01-07T11:20:59.416Z,100022.88
2023-01-07T11:26:08.234Z,100009.78
2023-01-07T11:31:04.982Z,99998.66
2023-01-07T11:36:01.585Z,99987.94
2023-01-07T11:41:00.850Z,99974.38
2023-01-07T11:46:19.705Z,99968.94
2023-01-07T11:51:17.358Z,99965.50
2023-01-07T11:56:20.221Z,99956.66
2023-01-07T12:01:21.523Z,99942.25
2023-01-07T12:06:26.076Z,99934.69
2023-01-07T12:11:29.467Z,99915.97
2023-01-07T12:16:30.308Z,99909.56
2023-01-07T12:21:37.015Z,99895.00
2023-01-07T12:26:58.460Z,99884.38
2023-01-07T12:32:07.623Z,99877.22
2023-01-07T12:37:14.544Z,99864.19
2023-01-07T12:47:31.734Z,99837.13
2023-01-07T12:52:43.831Z,99821.16
2023-01-07T12:57:44.275Z,99808.00
2023-01-07T13:03:18.181Z,99799.47
2023-01-07T13:08:37.504Z,99803.41
2023-01-07T13:13:42.764Z,99797.53
2023-01-07T13:18:39.229Z,99782.66
2023-01-07T13:24:01.411Z,99778.03
2023-01-07T13:29:23.666Z,99769.88
2023-01-07T13:34:41.520Z,99768.06
2023-01-07T13:39:56.004Z,99756.56
2023-01-07T13:45:10.306Z,99758.09
2023-01-07T13:50:18.705Z,99752.94
2023-01-07T13:55:32.676Z,99763.13
2023-01-07T14:00:38.056Z,99750.66
2023-01-07T14:05:34.570Z,99754.09
2023-01-07T14:10:30.849Z,99749.91
2023-01-07T14:15:50.354Z,99739.72
2023-01-07T14:20:55.639Z,99717.81
2023-01-07T14:26:32.923Z,99716.13
2023-01-07T14:31:30.597Z,99732.78
2023-01-07T14:37:02.338Z,99722.53
2023-01-07T14:42:18.656Z,99718.03
2023-01-07T14:47:41.073Z,99709.63
2023-01-07T14:52:52.681Z,99712.13
2023-01-07T14:58:07.558Z,99687.75
2023-01-07T15:03:36.089Z,99688.97
2023-01-07T15:09:03.454Z,99688.47
2023-01-07T15:14:35.027Z,99685.38
2023-01-07T15:19:37.134Z,99687.59
2023-01-07T15:24:36.623Z,99687.13
2023-01-07T15:30:03.515Z,99670.22
2023-01-07T15:35:01.163Z,99668.16
2023-01-07T15:39:57.914Z,99655.88
2023-01-07T15:44:59.359Z,99652.19
2023-01-07T15:49:55.747Z,99642.94
2023-01-07T15:54:52.074Z,99642.03
2023-01-07T15:59:52.024Z,99650.25
2023-01-07T16:04:54.214Z,99645.31
2023-01-07T16:09:52.022Z,99637.31
2023-01-07T16:14:48.351Z,99626.34
2023-01-07T16:19:44.889Z,99612.91
2023-01-07T16:24:53.869Z,99604.09
2023-01-07T16:29:54.736Z,99600.09
2023-01-07T16:35:07.899Z,99598.97
2023-01-07T16:40:05.895Z,99586.59
2023-01-07T16:45:03.874Z,99588.31
2023-01-07T16:50:15.956Z,99586.69
2023-01-07T16:55:44.246Z,99581.56
2023-01-07T17:00:49.194Z,99570.59
2023-01-07T17:05:59.259Z,99564.91
2023-01-07T17:11:13.690Z,99568.19
2023-01-07T17:16:28.815Z,99554.59
2023-01-07T17:21:39.061Z,99559.19
2023-01-07T17:26:40.677Z,99553.88
2023-01-07T17:31:40.558Z,99558.00
2023-01-07T17:36:37.087Z,99551.63
2023-01-07T17:41:54.597Z,99544.75
2023-01-07T17:46:51.949Z,99551.63
2023-01-07T17:51:49.510Z,99549.81
2023-01-07T17:56:46.090Z,99554.38
2023-01-07T18:01:43.117Z,99551.00
2023-01-07T18:06:42.346Z,99543.53
2023-01-07T18:12:00.111Z,99531.78
2023-01-07T18:16:56.859Z,99536.31
2023-01-07T18:21:53.168Z,99538.25
2023-01-07T18:26:49.501Z,99535.59
2023-01-07T18:31:46.532Z,99531.88
2023-01-07T18:36:43.222Z,99522.88
2023-01-07T18:41:39.854Z,99520.44
2023-01-07T18:46:36.258Z,99519.75
2023-01-07T18:51:32.635Z,99524.34
2023-01-07T18:56:28.959Z,99521.19
2023-01-07T19:01:25.379Z,99527.91
2023-01-07T19:06:21.776Z,99519.59
2023-01-07T19:11:18.086Z,99506.94
2023-01-07T19:16:14.516Z,99503.34
2023-01-07T19:21:12.824Z,99500.44
2023-01-07T19:26:10.960Z,99477.91
2023-01-07T19:31:09.138Z,99464.28
2023-01-07T19:36:15.851Z,99450.06
2023-01-07T19:41:19.578Z,99440.91
2023-01-07T19:46:16.966Z,99424.53
2023-01-07T19:51:13.412Z,99417.97
2023-01-07T19:56:12.132Z,99403.09
2023-01-07T20:01:14.724Z,99402.25
2023-01-07T20:06:14.128Z,99396.69
2023-01-07T20:11:11.609Z,99392.13
2023-01-07T20:16:10.986Z,99379.84
2023-01-07T20:21:07.896Z,99392.19
2023-01-07T20:26:08.409Z,99403.81
2023-01-07T20:31:07.017Z,99406.25
2023-01-07T20:36:05.187Z,99409.31
2023-01-07T20:41:05.450Z,99394.47
2023-01-07T20:46:04.158Z,99380.03
2023-01-07T20:51:07.830Z,99380.50
2023-01-07T20:56:05.345Z,99387.13
2023-01-07T21:01:03.412Z,99367.31
2023-01-07T21:05:59.869Z,99374.41
2023-01-07T21:10:56.669Z,99367.44
2023-01-07T21:15:53.971Z,99361.66
2023-01-07T21:20:50.309Z,99357.59
2023-01-07T21:25:48.189Z,99352.56
2023-01-07T21:30:44.991Z,99355.09
2023-01-07T21:35:41.750Z,99369.22
2023-01-07T21:40:39.297Z,99350.56
2023-01-07T21:45:36.628Z,99342.25
2023-01-07T21:50:32.965Z,99340.59
2023-01-07T21:55:29.356Z,99338.97
2023-01-07T22:00:25.780Z,99334.91
2023-01-07T22:05:22.353Z,99329.97
2023-01-07T22:10:18.685Z,99321.00
2023-01-07T22:15:15.251Z,99334.88
2023-01-07T22:20:12.346Z,99335.84
2023-01-07T22:25:09.717Z,99320.38
2023-01-07T22:30:07.328Z,99337.69
2023-01-07T22:35:03.977Z,99351.69
2023-01-07T22:40:05.329Z,99337.13
2023-01-07T22:45:18.155Z,99321.22
2023-01-07T22:50:15.040Z,99318.97
2023-01-07T22:55:12.142Z,99328.91
2023-01-07T23:00:15.888Z,99307.81
2023-01-07T23:05:12.205Z,99315.78
2023-01-07T23:10:08.939Z,99305.44
2023-01-07T23:15:05.906Z,99305.72
2023-01-07T23:20:02.464Z,99301.00
2023-01-07T23:24:58.771Z,99292.44
2023-01-07T23:29:55.264Z,99290.09
2023-01-07T23:34:51.669Z,99293.72
2023-01-07T23:39:47.978Z,99296.13
2023-01-07T23:44:44.307Z,99302.69
2023-01-07T23:49:40.693Z,99284.91
2023-01-07T23:54:37.066Z,99276.38
2023-01-07T23:59:33.474Z,99259.03
